sensor_id;sensor_type;location;lat;lon;timestamp;pressure;altitude;pressure_sealevel;temperature;humidity
41040;BME280;48586;50.122;18.972;2023-09-18T00:00:11;98747.63;;;15.20;61.38
41040;BME280;48586;50.122;18.972;2023-09-18T00:03:17;98742.38;;;15.19;61.07
41040;BME280;48586;50.122;18.972;2023-09-18T00:06:22;98746.09;;;15.18;61.15
41040;BME280;48586;50.122;18.972;2023-09-18T00:09:30;98747.78;;;15.19;61.00
41040;BME280;48586;50.122;18.972;2023-09-18T00:12:34;98740.38;;;15.21;61.09
41040;BME280;48586;50.122;18.972;2023-09-18T00:15:40;98742.06;;;15.22;60.80
41040;BME280;48586;50.122;18.972;2023-09-18T00:18:45;98737.69;;;15.21;60.70
41040;BME280;48586;50.122;18.972;2023-09-18T00:21:51;98737.16;;;15.17;60.78
41040;BME280;48586;50.122;18.972;2023-09-18T00:24:58;98738.00;;;15.18;61.01
41040;BME280;48586;50.122;18.972;2023-09-18T00:28:04;98729.44;;;15.14;61.06
41040;BME280;48586;50.122;18.972;2023-09-18T00:31:09;98738.53;;;15.13;60.84
41040;BME280;48586;50.122;18.972;2023-09-18T00:34:14;98728.59;;;15.14;60.73
41040;BME280;48586;50.122;18.972;2023-09-18T00:37:19;98736.19;;;15.10;61.04
41040;BME280;48586;50.122;18.972;2023-09-18T00:40:27;98740.91;;;15.08;60.90
41040;BME280;48586;50.122;18.972;2023-09-18T00:43:31;98740.06;;;15.08;60.91
41040;BME280;48586;50.122;18.972;2023-09-18T00:46:37;98739.41;;;15.06;60.89
41040;BME280;48586;50.122;18.972;2023-09-18T00:49:44;98738.72;;;15.04;60.79
41040;BME280;48586;50.122;18.972;2023-09-18T00:52:53;98731.00;;;15.01;61.02
41040;BME280;48586;50.122;18.972;2023-09-18T00:56:03;98733.19;;;14.97;60.88
41040;BME280;48586;50.122;18.972;2023-09-18T00:59:09;98735.22;;;14.95;60.97
41040;BME280;48586;50.122;18.972;2023-09-18T01:02:15;98722.56;;;14.96;60.98
41040;BME280;48586;50.122;18.972;2023-09-18T01:05:22;98728.97;;;14.94;60.87
41040;BME280;48586;50.122;18.972;2023-09-18T01:08:27;98721.06;;;14.93;60.54
41040;BME280;48586;50.122;18.972;2023-09-18T01:11:43;98723.09;;;14.91;60.71
41040;BME280;48586;50.122;18.972;2023-09-18T01:15:04;98731.66;;;14.94;60.51
41040;BME280;48586;50.122;18.972;2023-09-18T01:18:17;98721.59;;;14.88;60.81
41040;BME280;48586;50.122;18.972;2023-09-18T01:21:22;98722.09;;;14.84;60.57
41040;BME280;48586;50.122;18.972;2023-09-18T01:24:30;98721.25;;;14.83;60.53
41040;BME280;48586;50.122;18.972;2023-09-18T01:27:35;98731.19;;;14.83;60.61
41040;BME280;48586;50.122;18.972;2023-09-18T01:30:40;98730.34;;;14.82;60.58
41040;BME280;48586;50.122;18.972;2023-09-18T01:33:47;98736.09;;;14.79;60.49
41040;BME280;48586;50.122;18.972;2023-09-18T01:36:57;98735.75;;;14.74;60.72
41040;BME280;48586;50.122;18.972;2023-09-18T01:40:08;98725.50;;;14.70;60.64
41040;BME280;48586;50.122;18.972;2023-09-18T01:43:14;98729.34;;;14.67;60.58
41040;BME280;48586;50.122;18.972;2023-09-18T01:46:19;98726.31;;;14.62;60.50
41040;BME280;48586;50.122;18.972;2023-09-18T01:49:29;98720.94;;;14.62;60.75
41040;BME280;48586;50.122;18.972;2023-09-18T01:52:36;98720.63;;;14.57;60.42
41040;BME280;48586;50.122;18.972;2023-09-18T01:55:43;98723.81;;;14.60;60.15
41040;BME280;48586;50.122;18.972;2023-09-18T01:58:50;98720.94;;;14.62;59.94
41040;BME280;48586;50.122;18.972;2023-09-18T02:01:55;98726.00;;;14.57;60.41
41040;BME280;48586;50.122;18.972;2023-09-18T02:05:00;98722.59;;;14.55;60.27
41040;BME280;48586;50.122;18.972;2023-09-18T02:08:05;98711.31;;;14.51;60.13
41040;BME280;48586;50.122;18.972;2023-09-18T02:11:12;98710.81;;;14.48;60.34
41040;BME280;48586;50.122;18.972;2023-09-18T02:14:17;98716.53;;;14.45;60.31
41040;BME280;48586;50.122;18.972;2023-09-18T02:17:22;98718.91;;;14.48;60.14
41040;BME280;48586;50.122;18.972;2023-09-18T02:20:27;98721.25;;;14.43;60.00
41040;BME280;48586;50.122;18.972;2023-09-18T02:23:32;98715.84;;;14.34;60.21
41040;BME280;48586;50.122;18.972;2023-09-18T02:26:40;98716.53;;;14.28;60.55
41040;BME280;48586;50.122;18.972;2023-09-18T02:29:47;98706.13;;;14.25;60.51
41040;BME280;48586;50.122;18.972;2023-09-18T02:32:54;98709.78;;;14.24;60.68
41040;BME280;48586;50.122;18.972;2023-09-18T02:36:00;98709.97;;;14.23;60.67
41040;BME280;48586;50.122;18.972;2023-09-18T02:39:05;98712.66;;;14.23;60.86
41040;BME280;48586;50.122;18.972;2023-09-18T02:42:13;98707.63;;;14.20;61.18
41040;BME280;48586;50.122;18.972;2023-09-18T02:45:18;98709.47;;;14.19;61.14
41040;BME280;48586;50.122;18.972;2023-09-18T02:48:23;98708.81;;;14.17;61.13
41040;BME280;48586;50.122;18.972;2023-09-18T02:51:28;98705.94;;;14.19;61.06
41040;BME280;48586;50.122;18.972;2023-09-18T02:54:34;98702.41;;;14.18;61.14
41040;BME280;48586;50.122;18.972;2023-09-18T02:57:41;98709.81;;;14.16;61.26
41040;BME280;48586;50.122;18.972;2023-09-18T03:00:48;98700.38;;;14.12;60.93
41040;BME280;48586;50.122;18.972;2023-09-18T03:03:54;98695.50;;;14.07;61.36
41040;BME280;48586;50.122;18.972;2023-09-18T03:07:00;98695.47;;;13.99;61.65
41040;BME280;48586;50.122;18.972;2023-09-18T03:10:06;98694.63;;;13.99;61.39
41040;BME280;48586;50.122;18.972;2023-09-18T03:13:18;98688.41;;;13.98;61.57
41040;BME280;48586;50.122;18.972;2023-09-18T03:16:22;98686.56;;;13.99;61.50
41040;BME280;48586;50.122;18.972;2023-09-18T03:19:28;98692.63;;;14.01;61.26
41040;BME280;48586;50.122;18.972;2023-09-18T03:22:33;98686.72;;;13.97;61.74
41040;BME280;48586;50.122;18.972;2023-09-18T03:25:38;98684.72;;;13.99;61.68
41040;BME280;48586;50.122;18.972;2023-09-18T03:28:45;98684.03;;;13.97;61.62
41040;BME280;48586;50.122;18.972;2023-09-18T03:31:50;98685.88;;;13.97;61.56
41040;BME280;48586;50.122;18.972;2023-09-18T03:34:59;98678.16;;;13.94;61.46
41040;BME280;48586;50.122;18.972;2023-09-18T03:38:05;98683.69;;;13.92;61.70
41040;BME280;48586;50.122;18.972;2023-09-18T03:41:10;98677.81;;;13.89;61.49
41040;BME280;48586;50.122;18.972;2023-09-18T03:44:18;98677.13;;;13.87;61.69
41040;BME280;48586;50.122;18.972;2023-09-18T03:47:22;98674.78;;;13.84;61.55
41040;BME280;48586;50.122;18.972;2023-09-18T03:50:28;98668.69;;;13.82;61.74
41040;BME280;48586;50.122;18.972;2023-09-18T03:53:33;98666.34;;;13.78;61.86
41040;BME280;48586;50.122;18.972;2023-09-18T03:56:39;98661.97;;;13.77;61.67
41040;BME280;48586;50.122;18.972;2023-09-18T03:59:47;98660.13;;;13.78;61.48
41040;BME280;48586;50.122;18.972;2023-09-18T04:02:53;98661.63;;;13.72;61.72
41040;BME280;48586;50.122;18.972;2023-09-18T04:05:57;98659.63;;;13.74;61.41
41040;BME280;48586;50.122;18.972;2023-09-18T04:09:03;98656.25;;;13.72;61.45
41040;BME280;48586;50.122;18.972;2023-09-18T04:12:08;98662.63;;;13.71;61.57
41040;BME280;48586;50.122;18.972;2023-09-18T04:15:17;98652.56;;;13.73;61.49
41040;BME280;48586;50.122;18.972;2023-09-18T04:18:22;98655.41;;;13.72;61.48
41040;BME280;48586;50.122;18.972;2023-09-18T04:21:29;98653.72;;;13.71;61.64
41040;BME280;48586;50.122;18.972;2023-09-18T04:24:35;98651.84;;;13.71;61.35
41040;BME280;48586;50.122;18.972;2023-09-18T04:27:40;98656.25;;;13.72;61.14
41040;BME280;48586;50.122;18.972;2023-09-18T04:30:48;98656.56;;;13.69;61.44
41040;BME280;48586;50.122;18.972;2023-09-18T04:33:55;98648.66;;;13.68;61.59
41040;BME280;48586;50.122;18.972;2023-09-18T04:37:00;98651.72;;;13.73;61.25
41040;BME280;48586;50.122;18.972;2023-09-18T04:40:07;98650.72;;;13.74;61.33
41040;BME280;48586;50.122;18.972;2023-09-18T04:43:14;98645.16;;;13.75;61.07
41040;BME280;48586;50.122;18.972;2023-09-18T04:46:22;98645.31;;;13.74;60.97
41040;BME280;48586;50.122;18.972;2023-09-18T04:49:28;98631.34;;;13.70;61.25
41040;BME280;48586;50.122;18.972;2023-09-18T04:52:35;98631.34;;;13.70;61.46
41040;BME280;48586;50.122;18.972;2023-09-18T04:55:41;98625.66;;;13.73;61.33
41040;BME280;48586;50.122;18.972;2023-09-18T04:58:48;98629.69;;;13.77;61.46
41040;BME280;48586;50.122;18.972;2023-09-18T05:01:55;98627.66;;;13.79;61.38
41040;BME280;48586;50.122;18.972;2023-09-18T05:05:01;98632.03;;;13.81;61.51
41040;BME280;48586;50.122;18.972;2023-09-18T05:08:07;98632.38;;;13.86;61.41
41040;BME280;48586;50.122;18.972;2023-09-18T05:11:12;98634.72;;;13.89;61.17
41040;BME280;48586;50.122;18.972;2023-09-18T05:14:17;98636.09;;;13.93;61.50
41040;BME280;48586;50.122;18.972;2023-09-18T05:17:40;98639.97;;;13.98;61.37
41040;BME280;48586;50.122;18.972;2023-09-18T05:20:47;98635.59;;;14.05;61.23
41040;BME280;48586;50.122;18.972;2023-09-18T05:23:53;98628.34;;;14.14;61.33
41040;BME280;48586;50.122;18.972;2023-09-18T05:26:57;98627.66;;;14.20;60.89
41040;BME280;48586;50.122;18.972;2023-09-18T05:30:03;98619.25;;;14.23;61.14
41040;BME280;48586;50.122;18.972;2023-09-18T05:33:11;98619.75;;;14.27;61.04
41040;BME280;48586;50.122;18.972;2023-09-18T05:36:17;98609.81;;;14.35;61.27
41040;BME280;48586;50.122;18.972;2023-09-18T05:39:22;98619.91;;;14.42;61.10
41040;BME280;48586;50.122;18.972;2023-09-18T05:42:27;98613.84;;;14.48;60.89
41040;BME280;48586;50.122;18.972;2023-09-18T05:45:32;98604.22;;;14.53;61.06
41040;BME280;48586;50.122;18.972;2023-09-18T05:48:41;98598.19;;;14.59;60.71
41040;BME280;48586;50.122;18.972;2023-09-18T05:51:46;98601.84;;;14.67;60.60
41040;BME280;48586;50.122;18.972;2023-09-18T05:54:53;98597.97;;;14.69;60.67
41040;BME280;48586;50.122;18.972;2023-09-18T05:57:58;98595.41;;;14.76;60.39
41040;BME280;48586;50.122;18.972;2023-09-18T06:01:06;98587.13;;;14.85;60.34
41040;BME280;48586;50.122;18.972;2023-09-18T06:04:13;98594.84;;;14.97;60.18
41040;BME280;48586;50.122;18.972;2023-09-18T06:07:19;98589.41;;;15.05;60.38
41040;BME280;48586;50.122;18.972;2023-09-18T06:10:24;98580.91;;;15.16;59.94
41040;BME280;48586;50.122;18.972;2023-09-18T06:13:30;98589.63;;;15.26;59.87
41040;BME280;48586;50.122;18.972;2023-09-18T06:16:35;98568.38;;;15.31;59.73
41040;BME280;48586;50.122;18.972;2023-09-18T06:19:44;98568.47;;;15.46;59.40
41040;BME280;48586;50.122;18.972;2023-09-18T06:22:49;98578.28;;;15.62;59.30
41040;BME280;48586;50.122;18.972;2023-09-18T06:25:57;98571.47;;;15.74;59.05
41040;BME280;48586;50.122;18.972;2023-09-18T06:29:01;98574.78;;;15.84;58.95
41040;BME280;48586;50.122;18.972;2023-09-18T06:32:07;98579.56;;;15.97;58.89
41040;BME280;48586;50.122;18.972;2023-09-18T06:35:16;98586.84;;;16.11;58.40
41040;BME280;48586;50.122;18.972;2023-09-18T06:38:22;98583.31;;;16.25;58.37
41040;BME280;48586;50.122;18.972;2023-09-18T06:41:27;98570.06;;;16.39;57.62
41040;BME280;48586;50.122;18.972;2023-09-18T06:44:33;98576.97;;;16.56;57.68
41040;BME280;48586;50.122;18.972;2023-09-18T06:47:39;98575.47;;;16.68;56.99
41040;BME280;48586;50.122;18.972;2023-09-18T06:50:47;98570.72;;;16.85;56.94
41040;BME280;48586;50.122;18.972;2023-09-18T06:53:53;98572.00;;;17.04;56.86
41040;BME280;48586;50.122;18.972;2023-09-18T06:56:59;98568.47;;;17.18;56.42
41040;BME280;48586;50.122;18.972;2023-09-18T07:00:06;98566.94;;;17.30;55.66
41040;BME280;48586;50.122;18.972;2023-09-18T07:03:13;98568.09;;;17.42;55.78
41040;BME280;48586;50.122;18.972;2023-09-18T07:06:21;98570.56;;;17.59;55.68
41040;BME280;48586;50.122;18.972;2023-09-18T07:09:28;98558.63;;;17.74;54.48
41040;BME280;48586;50.122;18.972;2023-09-18T07:12:33;98561.97;;;17.91;54.34
41040;BME280;48586;50.122;18.972;2023-09-18T07:15:39;98565.59;;;18.05;54.17
41040;BME280;48586;50.122;18.972;2023-09-18T07:18:45;98567.59;;;18.18;53.99
41040;BME280;48586;50.122;18.972;2023-09-18T07:21:54;98565.00;;;18.31;53.47
41040;BME280;48586;50.122;18.972;2023-09-18T07:25:04;98560.28;;;18.46;53.70
41040;BME280;48586;50.122;18.972;2023-09-18T07:28:12;98558.91;;;18.57;52.55
41040;BME280;48586;50.122;18.972;2023-09-18T07:31:19;98559.25;;;18.75;52.09
41040;BME280;48586;50.122;18.972;2023-09-18T07:34:25;98554.13;;;18.93;52.48
41040;BME280;48586;50.122;18.972;2023-09-18T07:37:33;98554.59;;;19.10;51.89
41040;BME280;48586;50.122;18.972;2023-09-18T07:40:40;98546.31;;;19.25;51.43
41040;BME280;48586;50.122;18.972;2023-09-18T07:43:46;98548.69;;;19.41;50.96
41040;BME280;48586;50.122;18.972;2023-09-18T07:46:54;98538.50;;;19.57;50.12
41040;BME280;48586;50.122;18.972;2023-09-18T07:49:59;98533.25;;;19.62;50.53
41040;BME280;48586;50.122;18.972;2023-09-18T07:53:08;98532.22;;;19.83;49.54
41040;BME280;48586;50.122;18.972;2023-09-18T07:56:12;98536.00;;;19.95;50.12
41040;BME280;48586;50.122;18.972;2023-09-18T07:59:18;98524.75;;;20.11;49.49
41040;BME280;48586;50.122;18.972;2023-09-18T08:02:26;98528.72;;;20.22;48.92
41040;BME280;48586;50.122;18.972;2023-09-18T08:05:34;98527.84;;;20.34;49.17
41040;BME280;48586;50.122;18.972;2023-09-18T08:08:42;98525.72;;;20.50;49.38
41040;BME280;48586;50.122;18.972;2023-09-18T08:11:49;98521.72;;;20.65;48.20
41040;BME280;48586;50.122;18.972;2023-09-18T08:14:56;98523.38;;;20.80;47.74
41040;BME280;48586;50.122;18.972;2023-09-18T08:18:02;98525.63;;;20.96;48.46
41040;BME280;48586;50.122;18.972;2023-09-18T08:21:09;98525.09;;;21.12;47.94
41040;BME280;48586;50.122;18.972;2023-09-18T08:24:18;98521.28;;;21.27;47.23
41040;BME280;48586;50.122;18.972;2023-09-18T08:27:25;98517.91;;;21.38;45.73
41040;BME280;48586;50.122;18.972;2023-09-18T08:30:31;98511.91;;;21.54;46.12
41040;BME280;48586;50.122;18.972;2023-09-18T08:33:39;98511.19;;;21.65;45.02
41040;BME280;48586;50.122;18.972;2023-09-18T08:36:45;98509.19;;;21.79;43.62
41040;BME280;48586;50.122;18.972;2023-09-18T08:39:54;98505.56;;;21.92;44.93
41040;BME280;48586;50.122;18.972;2023-09-18T08:43:01;98503.34;;;22.07;44.48
41040;BME280;48586;50.122;18.972;2023-09-18T08:46:12;98503.53;;;22.12;42.51
41040;BME280;48586;50.122;18.972;2023-09-18T08:49:20;98500.34;;;22.15;42.28
41040;BME280;48586;50.122;18.972;2023-09-18T08:52:28;98498.16;;;22.24;42.62
41040;BME280;48586;50.122;18.972;2023-09-18T08:55:39;98499.47;;;22.39;43.89
41040;BME280;48586;50.122;18.972;2023-09-18T08:58:45;98490.28;;;22.52;43.32
41040;BME280;48586;50.122;18.972;2023-09-18T09:01:53;98488.94;;;22.61;41.89
41040;BME280;48586;50.122;18.972;2023-09-18T09:04:59;98484.88;;;22.71;41.84
41040;BME280;48586;50.122;18.972;2023-09-18T09:08:06;98484.56;;;22.79;42.45
41040;BME280;48586;50.122;18.972;2023-09-18T09:11:14;98478.09;;;22.91;41.38
41040;BME280;48586;50.122;18.972;2023-09-18T09:14:22;98474.53;;;23.09;42.58
41040;BME280;48586;50.122;18.972;2023-09-18T09:17:29;98473.84;;;23.25;41.06
41040;BME280;48586;50.122;18.972;2023-09-18T09:20:36;98476.53;;;23.32;38.61
41040;BME280;48586;50.122;18.972;2023-09-18T09:23:49;98464.53;;;23.33;39.65
41040;BME280;48586;50.122;18.972;2023-09-18T09:27:01;98459.34;;;23.43;39.62
41040;BME280;48586;50.122;18.972;2023-09-18T09:30:07;98452.34;;;23.59;39.19
41040;BME280;48586;50.122;18.972;2023-09-18T09:33:15;98453.09;;;23.78;38.55
41040;BME280;48586;50.122;18.972;2023-09-18T09:36:20;98450.16;;;23.91;37.27
41040;BME280;48586;50.122;18.972;2023-09-18T09:39:26;98440.66;;;24.05;37.94
41040;BME280;48586;50.122;18.972;2023-09-18T09:42:38;98439.47;;;24.25;38.19
41040;BME280;48586;50.122;18.972;2023-09-18T09:49:20;98431.09;;;24.55;34.69
41040;BME280;48586;50.122;18.972;2023-09-18T09:52:33;98432.88;;;24.61;34.45
41040;BME280;48586;50.122;18.972;2023-09-18T09:55:40;98430.09;;;24.73;34.13
41040;BME280;48586;50.122;18.972;2023-09-18T09:59:00;98443.91;;;24.78;33.76
41040;BME280;48586;50.122;18.972;2023-09-18T10:02:10;98432.22;;;24.82;33.21
41040;BME280;48586;50.122;18.972;2023-09-18T10:05:29;98430.84;;;24.96;32.75
41040;BME280;48586;50.122;18.972;2023-09-18T10:08:38;98429.03;;;25.14;34.22
41040;BME280;48586;50.122;18.972;2023-09-18T10:11:49;98428.31;;;25.35;32.80
41040;BME280;48586;50.122;18.972;2023-09-18T10:15:01;98426.19;;;25.54;32.62
41040;BME280;48586;50.122;18.972;2023-09-18T10:18:19;98432.50;;;25.71;30.84
41040;BME280;48586;50.122;18.972;2023-09-18T10:21:38;98423.38;;;25.83;31.71
41040;BME280;48586;50.122;18.972;2023-09-18T10:24:55;98432.00;;;26.08;32.91
41040;BME280;48586;50.122;18.972;2023-09-18T10:28:16;98433.31;;;26.22;30.64
41040;BME280;48586;50.122;18.972;2023-09-18T10:31:27;98420.13;;;26.41;30.90
41040;BME280;48586;50.122;18.972;2023-09-18T10:34:38;98420.59;;;26.55;30.46
41040;BME280;48586;50.122;18.972;2023-09-18T10:37:48;98418.47;;;26.62;29.85
41040;BME280;48586;50.122;18.972;2023-09-18T10:40:58;98409.63;;;26.77;30.07
41040;BME280;48586;50.122;18.972;2023-09-18T10:44:07;98406.53;;;26.95;31.06
41040;BME280;48586;50.122;18.972;2023-09-18T10:47:19;98402.72;;;27.23;30.63
41040;BME280;48586;50.122;18.972;2023-09-18T10:50:28;98405.16;;;27.46;29.24
41040;BME280;48586;50.122;18.972;2023-09-18T10:53:34;98390.88;;;27.49;27.70
41040;BME280;48586;50.122;18.972;2023-09-18T10:56:42;98401.88;;;27.49;27.41
41040;BME280;48586;50.122;18.972;2023-09-18T10:59:48;98397.44;;;27.43;27.26
41040;BME280;48586;50.122;18.972;2023-09-18T11:03:14;98394.81;;;27.64;26.82
41040;BME280;48586;50.122;18.972;2023-09-18T11:06:22;98390.28;;;27.79;26.98
41040;BME280;48586;50.122;18.972;2023-09-18T11:09:30;98400.94;;;27.71;26.96
41040;BME280;48586;50.122;18.972;2023-09-18T11:12:45;98390.88;;;27.49;26.58
41040;BME280;48586;50.122;18.972;2023-09-18T11:15:50;98392.78;;;27.22;26.84
41040;BME280;48586;50.122;18.972;2023-09-18T11:19:09;98399.25;;;27.11;27.24
41040;BME280;48586;50.122;18.972;2023-09-18T11:22:15;98387.19;;;27.34;27.54
41040;BME280;48586;50.122;18.972;2023-09-18T11:25:30;98383.66;;;27.75;27.51
41040;BME280;48586;50.122;18.972;2023-09-18T11:28:39;98381.63;;;27.98;26.21
41040;BME280;48586;50.122;18.972;2023-09-18T11:31:47;98371.81;;;28.17;25.66
41040;BME280;48586;50.122;18.972;2023-09-18T11:35:08;98373.13;;;27.99;25.60
41040;BME280;48586;50.122;18.972;2023-09-18T11:38:15;98358.81;;;28.02;26.20
41040;BME280;48586;50.122;18.972;2023-09-18T11:41:23;98362.72;;;28.12;25.94
41040;BME280;48586;50.122;18.972;2023-09-18T11:44:32;98364.44;;;28.28;25.33
41040;BME280;48586;50.122;18.972;2023-09-18T11:47:43;98363.16;;;28.41;25.71
41040;BME280;48586;50.122;18.972;2023-09-18T11:50:51;98362.69;;;28.64;24.68
41040;BME280;48586;50.122;18.972;2023-09-18T11:53:58;98351.41;;;28.65;25.62
41040;BME280;48586;50.122;18.972;2023-09-18T11:57:04;98356.69;;;28.82;24.89
41040;BME280;48586;50.122;18.972;2023-09-18T12:00:19;98353.66;;;28.84;24.89
41040;BME280;48586;50.122;18.972;2023-09-18T12:03:28;98342.44;;;29.21;24.52
41040;BME280;48586;50.122;18.972;2023-09-18T12:06:39;98338.88;;;29.41;23.21
41040;BME280;48586;50.122;18.972;2023-09-18T12:09:45;98340.00;;;29.40;23.48
41040;BME280;48586;50.122;18.972;2023-09-18T12:12:51;98331.44;;;29.41;23.79
41040;BME280;48586;50.122;18.972;2023-09-18T12:15:57;98326.47;;;29.59;22.65
41040;BME280;48586;50.122;18.972;2023-09-18T12:19:04;98333.34;;;29.61;23.42
41040;BME280;48586;50.122;18.972;2023-09-18T12:22:12;98312.91;;;29.88;22.62
41040;BME280;48586;50.122;18.972;2023-09-18T12:25:23;98311.94;;;30.28;22.15
41040;BME280;48586;50.122;18.972;2023-09-18T12:28:44;98304.22;;;30.79;21.74
41040;BME280;48586;50.122;18.972;2023-09-18T12:31:50;98310.75;;;30.99;20.89
41040;BME280;48586;50.122;18.972;2023-09-18T12:34:56;98308.03;;;30.93;21.07
41040;BME280;48586;50.122;18.972;2023-09-18T12:38:14;98300.00;;;30.97;21.37
41040;BME280;48586;50.122;18.972;2023-09-18T12:41:21;98302.19;;;31.34;20.87
41040;BME280;48586;50.122;18.972;2023-09-18T12:44:26;98303.47;;;31.47;20.70
41040;BME280;48586;50.122;18.972;2023-09-18T12:47:32;98304.13;;;31.39;20.74
41040;BME280;48586;50.122;18.972;2023-09-18T12:50:40;98309.94;;;31.32;21.43
41040;BME280;48586;50.122;18.972;2023-09-18T12:53:59;98308.28;;;31.31;21.02
41040;BME280;48586;50.122;18.972;2023-09-18T12:57:09;98299.44;;;31.63;21.36
41040;BME280;48586;50.122;18.972;2023-09-18T13:00:15;98299.09;;;32.23;21.21
41040;BME280;48586;50.122;18.972;2023-09-18T13:03:25;98295.13;;;32.29;20.95
41040;BME280;48586;50.122;18.972;2023-09-18T13:06:30;98294.88;;;32.49;19.79
41040;BME280;48586;50.122;18.972;2023-09-18T13:09:38;98289.97;;;32.84;19.61
41040;BME280;48586;50.122;18.972;2023-09-18T13:12:46;98294.00;;;33.10;19.24
41040;BME280;48586;50.122;18.972;2023-09-18T13:15:57;98289.69;;;33.37;18.93
41040;BME280;48586;50.122;18.972;2023-09-18T13:19:05;98290.31;;;33.47;19.21
41040;BME280;48586;50.122;18.972;2023-09-18T13:22:10;98277.16;;;33.86;19.17
41040;BME280;48586;50.122;18.972;2023-09-18T13:25:29;98280.16;;;33.57;18.89
41040;BME280;48586;50.122;18.972;2023-09-18T13:28:36;98281.94;;;33.01;18.61
41040;BME280;48586;50.122;18.972;2023-09-18T13:31:41;98274.25;;;32.74;19.37
41040;BME280;48586;50.122;18.972;2023-09-18T13:34:47;98273.78;;;32.91;19.53
41040;BME280;48586;50.122;18.972;2023-09-18T13:37:51;98260.13;;;32.95;19.59
41040;BME280;48586;50.122;18.972;2023-09-18T13:40:59;98266.00;;;33.07;19.33
41040;BME280;48586;50.122;18.972;2023-09-18T13:44:06;98261.13;;;33.17;18.71
41040;BME280;48586;50.122;18.972;2023-09-18T13:47:11;98255.03;;;33.34;19.24
41040;BME280;48586;50.122;18.972;2023-09-18T13:50:16;98255.25;;;33.38;19.01
41040;BME280;48586;50.122;18.972;2023-09-18T13:53:22;98249.00;;;33.13;19.37
41040;BME280;48586;50.122;18.972;2023-09-18T13:56:29;98232.22;;;33.24;19.34
41040;BME280;48586;50.122;18.972;2023-09-18T13:59:35;98245.16;;;33.28;18.88
41040;BME280;48586;50.122;18.972;2023-09-18T14:02:41;98234.72;;;33.53;19.02
41040;BME280;48586;50.122;18.972;2023-09-18T14:05:47;98224.88;;;33.60;18.55
41040;BME280;48586;50.122;18.972;2023-09-18T14:08:51;98228.19;;;33.90;18.61
41040;BME280;48586;50.122;18.972;2023-09-18T14:11:59;98219.66;;;33.86;18.66
41040;BME280;48586;50.122;18.972;2023-09-18T14:15:05;98222.78;;;33.38;18.67
41040;BME280;48586;50.122;18.972;2023-09-18T14:18:13;98226.19;;;32.65;19.23
41040;BME280;48586;50.122;18.972;2023-09-18T14:21:17;98222.63;;;32.22;19.54
41040;BME280;48586;50.122;18.972;2023-09-18T14:24:23;98215.19;;;31.98;20.08
41040;BME280;48586;50.122;18.972;2023-09-18T14:27:31;98223.56;;;31.69;20.49
41040;BME280;48586;50.122;18.972;2023-09-18T14:30:36;98212.66;;;31.54;21.46
41040;BME280;48586;50.122;18.972;2023-09-18T14:33:41;98215.13;;;31.27;21.28
41040;BME280;48586;50.122;18.972;2023-09-18T14:36:46;98211.53;;;30.97;21.42
41040;BME280;48586;50.122;18.972;2023-09-18T14:39:50;98213.44;;;30.62;21.74
41040;BME280;48586;50.122;18.972;2023-09-18T14:42:58;98207.09;;;30.07;22.30
41040;BME280;48586;50.122;18.972;2023-09-18T14:46:03;98206.91;;;29.84;22.84
41040;BME280;48586;50.122;18.972;2023-09-18T14:49:08;98193.44;;;29.72;23.50
41040;BME280;48586;50.122;18.972;2023-09-18T14:52:14;98207.59;;;29.30;24.01
41040;BME280;48586;50.122;18.972;2023-09-18T14:55:35;98204.88;;;28.74;24.50
41040;BME280;48586;50.122;18.972;2023-09-18T14:58:44;98192.63;;;28.08;25.18
41040;BME280;48586;50.122;18.972;2023-09-18T15:01:49;98195.09;;;27.52;25.64
41040;BME280;48586;50.122;18.972;2023-09-18T15:04:53;98192.66;;;27.14;26.60
41040;BME280;48586;50.122;18.972;2023-09-18T15:07:59;98186.50;;;26.97;27.30
41040;BME280;48586;50.122;18.972;2023-09-18T15:11:04;98186.13;;;26.83;27.33
41040;BME280;48586;50.122;18.972;2023-09-18T15:14:12;98182.50;;;26.77;27.27
41040;BME280;48586;50.122;18.972;2023-09-18T15:17:16;98175.41;;;26.81;27.41
41040;BME280;48586;50.122;18.972;2023-09-18T15:20:22;98175.06;;;26.78;27.23
41040;BME280;48586;50.122;18.972;2023-09-18T15:23:27;98165.63;;;26.68;27.86
41040;BME280;48586;50.122;18.972;2023-09-18T15:26:32;98159.06;;;26.70;27.59
41040;BME280;48586;50.122;18.972;2023-09-18T15:29:39;98171.09;;;26.63;27.90
41040;BME280;48586;50.122;18.972;2023-09-18T15:32:49;98177.13;;;26.60;28.08
41040;BME280;48586;50.122;18.972;2023-09-18T15:35:55;98162.78;;;26.53;28.18
41040;BME280;48586;50.122;18.972;2023-09-18T15:39:00;98170.44;;;26.51;28.39
41040;BME280;48586;50.122;18.972;2023-09-18T15:42:05;98160.28;;;26.52;28.67
41040;BME280;48586;50.122;18.972;2023-09-18T15:45:13;98153.63;;;26.43;28.65
41040;BME280;48586;50.122;18.972;2023-09-18T15:48:18;98155.63;;;26.25;28.66
41040;BME280;48586;50.122;18.972;2023-09-18T15:51:23;98150.50;;;26.07;29.08
41040;BME280;48586;50.122;18.972;2023-09-18T15:54:28;98154.13;;;25.86;29.54
41040;BME280;48586;50.122;18.972;2023-09-18T15:57:36;98154.44;;;25.67;29.59
41040;BME280;48586;50.122;18.972;2023-09-18T16:00:46;98154.22;;;25.52;30.27
41040;BME280;48586;50.122;18.972;2023-09-18T16:03:51;98158.56;;;25.48;30.28
41040;BME280;48586;50.122;18.972;2023-09-18T16:06:57;98163.50;;;25.51;30.79
41040;BME280;48586;50.122;18.972;2023-09-18T16:10:04;98156.94;;;25.30;30.93
41040;BME280;48586;50.122;18.972;2023-09-18T16:13:10;98155.63;;;25.33;31.09
41040;BME280;48586;50.122;18.972;2023-09-18T16:16:19;98156.31;;;25.23;30.71
41040;BME280;48586;50.122;18.972;2023-09-18T16:19:24;98157.91;;;25.02;30.92
41040;BME280;48586;50.122;18.972;2023-09-18T16:22:29;98151.50;;;24.96;31.10